Brightwood, Oregon
Current Conditions -  °F | °C
As of 8:53 PM on Saturday 25 Oct 2014 (Local Time) from KTTD Reporting Station
Light Rain Light Rain  
Wind Chill: 56°   Ceiling: 10000
Heat Index: 56°   Visibility: 10mi
Dew Point: 47°   Wind: 16mph
Humidity: 72%   Direction: 230°SW
Pressure: 29.79"   Gusts: 26mph
Location:  45.38°N, 122.02°W
Report Text: KTTD 260353Z 23014G23KT 10SM -RA SCT080 BKN100 13/08 A2979 RMK AO2 RAB07E27B45 SLP086 P0000 T01330083
Loading
Personal Weather Stations






























Interactive Weather Map
Tropical Storm Tracking
New forecast layout! Learn more

10-Day Weather Forecast

Advertisements
Track Severe Weather on mobile